createdAt,value
2017-08-18T00:01:14.958Z,8.73
2017-08-18T00:03:42.413Z,10.60
2017-08-18T00:06:09.989Z,7.40
2017-08-18T00:08:37.540Z,7.83
2017-08-18T00:11:04.993Z,9.10
2017-08-18T00:13:32.558Z,9.70
2017-08-18T00:16:00.113Z,9.10
2017-08-18T00:18:27.575Z,7.40
2017-08-18T00:20:55.045Z,8.20
2017-08-18T00:23:22.593Z,9.40
2017-08-18T00:25:50.154Z,8.87
2017-08-18T00:28:17.599Z,9.07
2017-08-18T00:30:45.077Z,10.87
2017-08-18T00:33:13.515Z,9.80
2017-08-18T00:35:40.970Z,9.57
2017-08-18T00:38:08.420Z,8.33
2017-08-18T00:40:35.881Z,9.63
2017-08-18T00:43:03.361Z,10.20
2017-08-18T00:45:30.837Z,9.43
2017-08-18T00:47:58.298Z,9.40
2017-08-18T00:50:26.536Z,9.90
2017-08-18T00:52:54.014Z,9.57
2017-08-18T00:55:21.578Z,9.33
2017-08-18T00:57:49.037Z,9.10
2017-08-18T01:00:16.491Z,10.53
2017-08-18T01:02:43.953Z,8.70
2017-08-18T01:05:12.213Z,8.23
2017-08-18T01:07:39.686Z,9.43
2017-08-18T01:10:07.137Z,9.97
2017-08-18T01:12:34.599Z,10.53
2017-08-18T01:15:02.826Z,10.60
2017-08-18T01:17:30.290Z,9.30
2017-08-18T01:19:57.753Z,12.10
2017-08-18T01:22:25.330Z,10.77
2017-08-18T01:24:52.893Z,10.73
2017-08-18T01:27:20.353Z,10.17
2017-08-18T01:29:47.817Z,13.30
2017-08-18T01:32:16.081Z,10.97
2017-08-18T01:34:43.557Z,11.37
2017-08-18T01:37:11.813Z,11.80
2017-08-18T01:39:39.290Z,11.93
2017-08-18T01:42:07.550Z,12.50
2017-08-18T01:44:35.813Z,11.33
2017-08-18T01:47:03.278Z,10.77
2017-08-18T01:49:30.829Z,11.37
2017-08-18T01:51:58.399Z,11.60
2017-08-18T01:54:25.950Z,9.43
2017-08-18T01:56:53.509Z,12.83
2017-08-18T01:59:20.969Z,11.20
2017-08-18T02:01:48.956Z,11.13
2017-08-18T02:04:16.421Z,11.03
2017-08-18T02:06:43.916Z,11.83
2017-08-18T02:09:11.354Z,11.67
2017-08-18T02:11:51.831Z,11.33
2017-08-18T02:14:21.373Z,10.00
2017-08-18T02:16:48.824Z,10.00
2017-08-18T02:19:16.313Z,10.83
2017-08-18T02:21:43.778Z,10.90
2017-08-18T02:24:11.293Z,11.10
2017-08-18T02:26:38.756Z,11.90
2017-08-18T02:29:06.218Z,13.10
2017-08-18T02:31:33.844Z,11.83
2017-08-18T02:34:01.512Z,11.70
2017-08-18T02:36:28.979Z,11.87
2017-08-18T02:38:56.438Z,12.70
2017-08-18T02:41:23.909Z,12.70
2017-08-18T02:43:51.361Z,12.77
2017-08-18T02:46:18.841Z,12.80
2017-08-18T02:48:46.297Z,11.80
2017-08-18T02:51:14.526Z,12.27
2017-08-18T02:53:42.006Z,11.60
2017-08-18T02:56:09.480Z,11.90
2017-08-18T02:58:37.738Z,11.50
2017-08-18T03:01:05.210Z,10.80
2017-08-18T03:03:33.437Z,11.03
2017-08-18T03:06:00.920Z,12.90
2017-08-18T03:08:28.396Z,10.50
2017-08-18T03:10:55.853Z,11.73
2017-08-18T03:13:23.309Z,13.37
2017-08-18T03:15:51.575Z,11.27
2017-08-18T03:18:19.038Z,12.13
2017-08-18T03:20:47.270Z,10.60
2017-08-18T03:23:14.746Z,12.20
2017-08-18T03:25:42.214Z,11.10
2017-08-18T03:28:09.766Z,10.10
2017-08-18T03:30:37.336Z,10.93
2017-08-18T03:33:05.371Z,11.03
2017-08-18T03:35:32.834Z,10.87
2017-08-18T03:38:00.305Z,11.10
2017-08-18T03:40:27.766Z,10.00
2017-08-18T03:42:55.236Z,9.20
2017-08-18T03:45:22.693Z,11.87
2017-08-18T03:47:50.930Z,11.10
2017-08-18T03:50:18.400Z,10.43
2017-08-18T03:52:45.874Z,11.57
2017-08-18T03:55:13.438Z,10.70
2017-08-18T03:57:40.917Z,11.63
2017-08-18T04:00:12.093Z,9.40
2017-08-18T04:02:39.554Z,10.87
2017-08-18T04:05:07.036Z,9.17
2017-08-18T04:07:34.501Z,9.30
2017-08-18T04:10:01.969Z,10.87
2017-08-18T04:12:30.198Z,11.23
2017-08-18T04:14:57.665Z,10.63
2017-08-18T04:17:25.145Z,11.50
2017-08-18T04:19:52.618Z,12.50
2017-08-18T04:22:20.885Z,12.00
2017-08-18T04:24:48.353Z,12.47
2017-08-18T04:27:16.585Z,13.60
2017-08-18T04:29:44.073Z,13.60
2017-08-18T04:32:11.536Z,12.73
2017-08-18T04:34:39.767Z,11.80
2017-08-18T04:37:07.263Z,12.60
2017-08-18T04:39:34.732Z,12.40
2017-08-18T04:42:03.789Z,12.00
2017-08-18T04:44:31.289Z,12.10
2017-08-18T04:46:58.762Z,11.33
2017-08-18T04:49:26.278Z,12.57
2017-08-18T04:51:53.753Z,9.50
2017-08-18T04:54:21.209Z,10.20
2017-08-18T04:56:49.434Z,8.53
2017-08-18T04:59:16.897Z,10.43
2017-08-18T05:01:44.374Z,10.80
2017-08-18T05:04:11.834Z,10.73
2017-08-18T05:06:39.298Z,9.30
2017-08-18T05:09:06.846Z,9.13
2017-08-18T05:11:34.308Z,8.90
2017-08-18T05:14:01.772Z,9.80
2017-08-18T05:16:29.234Z,11.00
2017-08-18T05:18:57.459Z,9.50
2017-08-18T05:21:24.925Z,10.30
2017-08-18T05:23:52.388Z,9.83
2017-08-18T05:26:19.961Z,10.20
2017-08-18T05:28:47.530Z,8.10
2017-08-18T05:31:14.999Z,9.33
2017-08-18T05:33:43.227Z,6.80
2017-08-18T05:36:10.684Z,8.90
2017-08-18T05:38:38.165Z,10.27
2017-08-18T05:41:05.635Z,10.50
2017-08-18T05:43:33.090Z,9.00
2017-08-18T05:46:00.635Z,8.90
2017-08-18T05:48:28.093Z,9.40
2017-08-18T05:50:55.662Z,8.73
2017-08-18T05:53:23.134Z,8.93
2017-08-18T05:55:50.584Z,9.97
2017-08-18T05:58:18.813Z,9.27
2017-08-18T06:00:46.301Z,9.20
2017-08-18T06:03:13.758Z,8.40
2017-08-18T06:05:41.218Z,7.00
2017-08-18T06:08:08.840Z,7.50
2017-08-18T06:10:36.338Z,6.80
2017-08-18T06:13:03.793Z,6.47
2017-08-18T06:15:31.249Z,8.03
2017-08-18T06:17:58.722Z,7.70
2017-08-18T06:20:26.950Z,8.00
2017-08-18T06:22:54.411Z,6.80
2017-08-18T06:25:21.865Z,5.67
2017-08-18T06:27:49.317Z,8.10
2017-08-18T06:30:16.772Z,6.67
2017-08-18T06:32:44.263Z,6.10
2017-08-18T06:35:11.711Z,5.37
2017-08-18T06:37:39.161Z,5.20
2017-08-18T06:40:06.739Z,5.57
2017-08-18T06:42:34.185Z,6.30
2017-08-18T06:45:01.785Z,8.33
2017-08-18T06:47:29.886Z,6.50
2017-08-18T06:49:57.362Z,5.30
2017-08-18T06:52:24.810Z,7.10
2017-08-18T06:54:52.276Z,5.80
2017-08-18T06:57:19.739Z,5.93
2017-08-18T06:59:47.205Z,6.53
2017-08-18T07:02:14.659Z,6.43
2017-08-18T07:04:42.129Z,6.40
2017-08-18T07:07:09.671Z,6.43
2017-08-18T07:09:37.129Z,6.73
2017-08-18T07:12:04.587Z,7.57
2017-08-18T07:14:32.054Z,6.80
2017-08-18T07:16:59.502Z,6.87
2017-08-18T07:19:26.959Z,5.57
2017-08-18T07:21:54.414Z,4.67
2017-08-18T07:24:21.873Z,4.30
2017-08-18T07:26:49.331Z,4.80
2017-08-18T07:29:16.888Z,4.77
2017-08-18T07:31:44.351Z,3.80
2017-08-18T07:34:11.811Z,4.60
2017-08-18T07:36:40.027Z,3.93
2017-08-18T07:39:07.485Z,4.50
2017-08-18T07:41:34.925Z,4.00
2017-08-18T07:44:02.406Z,5.50
2017-08-18T07:46:29.964Z,4.30
2017-08-18T07:48:57.410Z,4.40
2017-08-18T07:51:24.861Z,3.87
2017-08-18T07:53:52.315Z,4.10
2017-08-18T07:56:19.771Z,3.60
2017-08-18T07:58:47.217Z,4.67
2017-08-18T08:01:14.686Z,3.40
2017-08-18T08:03:42.138Z,4.50
2017-08-18T08:06:09.653Z,4.40
2017-08-18T08:08:37.200Z,4.03
2017-08-18T08:11:04.761Z,3.80
2017-08-18T08:13:32.318Z,4.10
2017-08-18T08:15:59.787Z,4.17
2017-08-18T08:18:27.246Z,4.70
2017-08-18T08:20:54.699Z,3.97
2017-08-18T08:23:22.143Z,4.20
2017-08-18T08:25:49.605Z,4.50
2017-08-18T08:28:17.158Z,4.03
2017-08-18T08:30:44.605Z,4.33
2017-08-18T08:33:12.065Z,5.07
2017-08-18T08:35:39.521Z,5.10
2017-08-18T08:38:06.981Z,4.10
2017-08-18T08:40:34.993Z,3.63
2017-08-18T08:43:03.218Z,4.17
2017-08-18T08:45:30.675Z,4.10
2017-08-18T08:47:58.161Z,3.40
2017-08-18T08:50:25.597Z,3.90
2017-08-18T08:52:53.054Z,4.00
2017-08-18T08:55:20.617Z,3.97
2017-08-18T08:57:48.081Z,4.13
2017-08-18T09:00:15.534Z,3.50
2017-08-18T09:02:42.994Z,3.03
2017-08-18T09:05:10.446Z,3.50
2017-08-18T09:07:38.121Z,3.33
2017-08-18T09:10:05.673Z,3.23
2017-08-18T09:12:33.220Z,3.27
2017-08-18T09:15:00.775Z,2.83
2017-08-18T09:17:28.220Z,3.43
2017-08-18T09:19:55.688Z,3.03
2017-08-18T09:22:23.140Z,2.70
2017-08-18T09:24:50.592Z,3.03
2017-08-18T09:27:18.071Z,2.80
2017-08-18T09:29:45.623Z,2.83
2017-08-18T09:32:13.061Z,3.17
2017-08-18T09:34:40.637Z,2.73
2017-08-18T09:37:08.081Z,3.27
2017-08-18T09:39:35.649Z,2.60
2017-08-18T09:42:03.094Z,3.30
2017-08-18T09:44:30.641Z,2.90
2017-08-18T09:46:58.096Z,2.80
2017-08-18T09:49:37.273Z,3.03
2017-08-18T09:52:17.402Z,2.93
2017-08-18T09:54:56.817Z,2.67
2017-08-18T09:57:36.201Z,2.60
2017-08-18T10:00:04.454Z,3.10
2017-08-18T10:02:31.910Z,2.80
2017-08-18T10:04:59.373Z,2.70
2017-08-18T10:07:26.836Z,2.70
2017-08-18T10:09:54.373Z,2.70
2017-08-18T10:12:21.826Z,2.30
2017-08-18T10:14:49.273Z,2.83
2017-08-18T10:17:16.750Z,2.77
2017-08-18T10:19:44.203Z,2.83
2017-08-18T10:22:11.659Z,2.43
2017-08-18T10:24:39.111Z,2.70
2017-08-18T10:27:06.568Z,2.80
2017-08-18T10:29:34.024Z,2.63
2017-08-18T10:32:01.483Z,2.80
2017-08-18T10:34:28.950Z,2.80
2017-08-18T10:36:56.422Z,2.43
2017-08-18T10:39:24.647Z,3.07
2017-08-18T10:41:52.094Z,2.80
2017-08-18T10:44:19.553Z,2.27
2017-08-18T10:46:47.041Z,2.67
2017-08-18T10:49:14.494Z,2.80
2017-08-18T10:51:42.058Z,2.70
2017-08-18T10:54:09.513Z,2.60
2017-08-18T10:56:37.068Z,2.23
2017-08-18T10:59:04.520Z,2.40
2017-08-18T11:01:31.985Z,2.60
2017-08-18T11:03:59.444Z,2.13
2017-08-18T11:06:26.889Z,2.30
2017-08-18T11:08:54.341Z,2.70
2017-08-18T11:11:21.797Z,2.20
2017-08-18T11:13:49.262Z,2.47
2017-08-18T11:16:16.707Z,1.90
2017-08-18T11:18:44.170Z,2.53
2017-08-18T11:21:11.630Z,2.03
2017-08-18T11:23:39.200Z,2.20
2017-08-18T11:26:06.751Z,2.67
2017-08-18T11:28:34.217Z,2.13
2017-08-18T11:31:01.662Z,2.47
2017-08-18T11:33:29.121Z,2.30
2017-08-18T11:35:56.605Z,2.60
2017-08-18T11:38:24.854Z,2.00
2017-08-18T11:40:52.409Z,2.20
2017-08-18T11:43:19.856Z,2.30
2017-08-18T11:45:47.398Z,3.10
2017-08-18T11:48:14.855Z,2.10
2017-08-18T11:50:42.296Z,2.57
2017-08-18T11:53:09.742Z,2.07
2017-08-18T11:55:37.193Z,1.90
2017-08-18T11:58:04.711Z,2.20
2017-08-18T12:00:32.274Z,1.80
2017-08-18T12:02:59.732Z,2.40
2017-08-18T12:05:27.196Z,2.40
2017-08-18T12:07:54.646Z,2.00
2017-08-18T12:10:22.104Z,2.00
2017-08-18T12:12:49.564Z,2.00
2017-08-18T12:15:17.022Z,2.57
2017-08-18T12:17:44.469Z,2.00
2017-08-18T12:20:12.020Z,2.10
2017-08-18T12:22:39.581Z,2.47
2017-08-18T12:25:07.028Z,2.40
2017-08-18T12:27:34.490Z,2.33
2017-08-18T12:30:01.943Z,2.00
2017-08-18T12:32:29.403Z,2.10
2017-08-18T12:34:56.846Z,2.40
2017-08-18T12:37:24.302Z,1.87
2017-08-18T12:39:51.752Z,2.17
2017-08-18T12:42:19.201Z,2.53
2017-08-18T12:44:46.653Z,1.90
2017-08-18T12:47:14.109Z,1.67
2017-08-18T12:49:41.565Z,2.20
2017-08-18T12:52:09.022Z,1.90
2017-08-18T12:54:36.510Z,2.40
2017-08-18T12:57:03.953Z,2.27
2017-08-18T12:59:31.438Z,1.97
2017-08-18T13:01:58.977Z,2.10
2017-08-18T13:04:26.542Z,2.00
2017-08-18T13:06:53.996Z,2.30
2017-08-18T13:09:21.476Z,2.17
2017-08-18T13:11:48.926Z,2.30
2017-08-18T13:14:16.377Z,2.20
2017-08-18T13:16:43.831Z,1.90
2017-08-18T13:19:11.288Z,1.90
2017-08-18T13:21:38.834Z,1.93
2017-08-18T13:24:06.292Z,2.10
2017-08-18T13:26:33.746Z,2.03
2017-08-18T13:29:01.203Z,2.10
2017-08-18T13:31:28.653Z,2.00
2017-08-18T13:33:56.104Z,2.07
2017-08-18T13:36:23.553Z,1.83
2017-08-18T13:38:51.002Z,1.90
2017-08-18T13:41:18.486Z,1.80
2017-08-18T13:43:45.935Z,2.10
2017-08-18T13:46:13.405Z,2.23
2017-08-18T13:48:40.850Z,2.40
2017-08-18T13:51:08.309Z,2.33
2017-08-18T13:53:35.772Z,2.17
2017-08-18T13:56:03.221Z,2.00
2017-08-18T13:58:30.781Z,2.20
2017-08-18T14:00:58.243Z,2.20
2017-08-18T14:03:25.690Z,2.20
2017-08-18T14:05:53.146Z,2.40
2017-08-18T14:08:20.608Z,2.00
2017-08-18T14:10:48.077Z,2.30
2017-08-18T14:13:15.621Z,2.27
2017-08-18T14:15:43.094Z,2.00
2017-08-18T14:18:10.551Z,2.33
2017-08-18T14:20:38.006Z,2.30
2017-08-18T14:23:05.453Z,2.47
2017-08-18T14:25:38.659Z,2.53
2017-08-18T14:28:06.110Z,2.60
2017-08-18T14:30:33.566Z,2.63
2017-08-18T14:33:01.023Z,2.33
2017-08-18T14:35:28.488Z,3.10
2017-08-18T14:37:56.757Z,2.80
2017-08-18T14:40:24.221Z,2.57
2017-08-18T14:42:52.449Z,2.47
2017-08-18T14:45:19.925Z,1.97
2017-08-18T14:47:47.369Z,1.90
2017-08-18T14:50:14.832Z,1.63
2017-08-18T14:52:42.285Z,2.10
2017-08-18T14:55:09.739Z,1.50
2017-08-18T14:57:37.198Z,1.90
2017-08-18T15:00:04.674Z,1.93
2017-08-18T15:02:32.140Z,2.00
2017-08-18T15:04:59.585Z,1.90
2017-08-18T15:07:27.138Z,2.37
2017-08-18T15:09:54.590Z,2.10
2017-08-18T15:12:22.045Z,2.63
2017-08-18T15:14:49.491Z,2.10
2017-08-18T15:17:16.962Z,2.70
2017-08-18T15:19:44.421Z,3.00
2017-08-18T15:22:11.981Z,2.73
2017-08-18T15:24:39.425Z,2.50
2017-08-18T15:27:06.902Z,2.30
2017-08-18T15:29:34.457Z,3.00
2017-08-18T15:32:01.907Z,3.00
2017-08-18T15:34:29.478Z,3.27
2017-08-18T15:37:00.167Z,2.80
2017-08-18T15:39:27.601Z,3.27
2017-08-18T15:41:55.349Z,3.43
2017-08-18T15:44:24.440Z,4.60
2017-08-18T15:46:52.766Z,4.27
2017-08-18T15:49:20.249Z,3.73
2017-08-18T15:51:47.702Z,3.70
2017-08-18T15:54:15.942Z,2.60
2017-08-18T15:56:46.080Z,2.10
2017-08-18T15:59:13.730Z,1.80
2017-08-18T16:01:41.187Z,1.87
2017-08-18T16:04:08.655Z,2.07
2017-08-18T16:06:36.101Z,1.87
2017-08-18T16:09:03.558Z,2.30
2017-08-18T16:11:31.011Z,2.43
2017-08-18T16:13:58.528Z,2.83
2017-08-18T16:16:28.272Z,2.47
2017-08-18T16:18:55.725Z,2.30
2017-08-18T16:21:23.212Z,1.70
2017-08-18T16:23:50.666Z,1.70
2017-08-18T16:26:18.174Z,1.60
2017-08-18T16:28:48.344Z,1.70
2017-08-18T16:31:17.250Z,2.43
2017-08-18T16:33:44.702Z,2.13
2017-08-18T16:36:12.229Z,1.43
2017-08-18T16:38:39.680Z,1.40
2017-08-18T16:41:07.144Z,1.40
2017-08-18T16:43:34.593Z,2.10
2017-08-18T16:46:02.082Z,1.30
2017-08-18T16:48:29.633Z,1.20
2017-08-18T16:50:57.189Z,1.10
2017-08-18T16:53:24.644Z,1.10
2017-08-18T16:55:52.094Z,1.10
2017-08-18T16:58:19.549Z,1.07
2017-08-18T17:00:47.014Z,1.30
2017-08-18T17:03:14.481Z,1.10
2017-08-18T17:05:41.955Z,1.00
2017-08-18T17:08:10.183Z,0.87
2017-08-18T17:10:37.639Z,0.93
2017-08-18T17:13:05.125Z,0.80
2017-08-18T17:15:32.577Z,1.00
2017-08-18T17:18:00.034Z,0.90
2017-08-18T17:20:27.489Z,1.10
2017-08-18T17:22:54.950Z,1.00
2017-08-18T17:25:22.405Z,0.90
2017-08-18T17:27:49.876Z,0.90
2017-08-18T17:30:17.330Z,0.90
2017-08-18T17:32:44.795Z,1.10
2017-08-18T17:35:12.328Z,1.20
2017-08-18T17:37:39.900Z,1.30
2017-08-18T17:40:07.363Z,1.03
2017-08-18T17:42:34.826Z,0.87
2017-08-18T17:45:03.057Z,0.80
2017-08-18T17:47:30.525Z,0.70
2017-08-18T17:49:57.989Z,0.90
2017-08-18T17:52:25.458Z,0.83
2017-08-18T17:54:52.915Z,1.10
2017-08-18T17:57:20.379Z,0.73
2017-08-18T17:59:47.830Z,1.50
2017-08-18T18:02:15.281Z,1.00
2017-08-18T18:04:42.745Z,0.97
2017-08-18T18:07:10.211Z,0.80
2017-08-18T18:09:38.454Z,0.83
2017-08-18T18:12:05.901Z,0.90
2017-08-18T18:14:33.365Z,0.80
2017-08-18T18:17:00.927Z,1.00
2017-08-18T18:19:28.407Z,1.00
2017-08-18T18:21:55.963Z,0.70
2017-08-18T18:24:23.421Z,0.80
2017-08-18T18:26:51.646Z,1.10
2017-08-18T18:29:19.135Z,0.90
2017-08-18T18:31:46.598Z,0.80
2017-08-18T18:34:14.055Z,0.93
2017-08-18T18:36:41.510Z,1.00
2017-08-18T18:39:08.984Z,1.00
2017-08-18T18:41:37.246Z,1.00
2017-08-18T18:44:04.736Z,1.20
2017-08-18T18:46:32.177Z,1.00
2017-08-18T18:49:00.402Z,0.90
2017-08-18T18:51:27.849Z,0.90
2017-08-18T18:53:55.317Z,0.90
2017-08-18T18:56:22.773Z,0.80
2017-08-18T18:58:50.237Z,0.80
2017-08-18T19:01:17.690Z,1.00
2017-08-18T19:03:45.166Z,0.90
2017-08-18T19:06:12.627Z,0.80
2017-08-18T19:08:40.171Z,0.80
2017-08-18T19:11:07.738Z,1.10
2017-08-18T19:13:35.187Z,0.87
2017-08-18T19:16:02.645Z,0.80
2017-08-18T19:18:30.106Z,0.70
2017-08-18T19:20:57.566Z,0.80
2017-08-18T19:23:25.019Z,0.67
2017-08-18T19:25:52.483Z,0.90
2017-08-18T19:28:19.934Z,0.70
2017-08-18T19:30:47.566Z,0.70
2017-08-18T19:33:15.027Z,0.80
2017-08-18T19:35:42.527Z,0.70
2017-08-18T19:38:09.970Z,0.83
2017-08-18T19:40:37.435Z,0.70
2017-08-18T19:43:05.659Z,0.77
2017-08-18T19:45:33.249Z,0.80
2017-08-18T19:48:00.698Z,0.87
2017-08-18T19:50:34.290Z,0.70
2017-08-18T19:53:01.754Z,0.90
2017-08-18T19:55:32.015Z,0.73
2017-08-18T19:58:00.250Z,0.83
2017-08-18T20:00:27.826Z,0.70
2017-08-18T20:02:55.302Z,0.70
2017-08-18T20:05:23.557Z,0.60
2017-08-18T20:07:51.029Z,0.70
2017-08-18T20:10:19.261Z,0.60
2017-08-18T20:12:46.722Z,0.90
2017-08-18T20:15:16.953Z,0.80
2017-08-18T20:17:44.433Z,0.97
2017-08-18T20:20:12.661Z,0.73
2017-08-18T20:22:40.121Z,0.70
2017-08-18T20:25:08.559Z,1.07
2017-08-18T20:27:36.805Z,0.70
2017-08-18T20:30:04.353Z,0.90
2017-08-18T20:32:32.805Z,0.77
2017-08-18T20:35:01.022Z,0.70
2017-08-18T20:37:28.569Z,0.90
2017-08-18T20:39:56.133Z,0.80
2017-08-18T20:42:23.595Z,0.90
2017-08-18T20:44:51.062Z,0.70
2017-08-18T20:47:19.288Z,0.80
2017-08-18T20:49:50.981Z,1.00
2017-08-18T20:52:19.326Z,0.90
2017-08-18T20:54:46.782Z,0.90
2017-08-18T20:57:14.253Z,0.90
2017-08-18T20:59:41.708Z,0.70
2017-08-18T21:02:09.166Z,1.00
2017-08-18T21:04:36.629Z,0.90
2017-08-18T21:07:04.104Z,0.80
2017-08-18T21:09:32.872Z,0.83
2017-08-18T21:12:00.438Z,0.80
2017-08-18T21:14:27.889Z,1.30
2017-08-18T21:16:55.350Z,0.90
2017-08-18T21:19:22.810Z,0.90
2017-08-18T21:21:50.270Z,1.00
2017-08-18T21:24:17.737Z,0.93
2017-08-18T21:26:45.989Z,1.00
2017-08-18T21:29:13.558Z,0.80
2017-08-18T21:31:41.013Z,0.90
2017-08-18T21:34:08.482Z,1.00
2017-08-18T21:36:36.538Z,0.80
2017-08-18T21:39:03.992Z,0.93
2017-08-18T21:41:31.445Z,0.90
2017-08-18T21:43:58.908Z,1.00
2017-08-18T21:46:26.357Z,0.90
2017-08-18T21:48:53.924Z,0.90
2017-08-18T21:51:21.379Z,0.90
2017-08-18T21:53:48.929Z,0.70
2017-08-18T21:56:16.489Z,0.90
2017-08-18T21:58:43.958Z,0.80
2017-08-18T22:02:37.628Z,0.80
2017-08-18T22:05:05.186Z,0.77
2017-08-18T22:07:32.639Z,0.80
2017-08-18T22:10:00.095Z,0.80
2017-08-18T22:12:27.551Z,0.80
2017-08-18T22:14:55.120Z,1.00
2017-08-18T22:17:22.701Z,0.80
2017-08-18T22:19:50.158Z,0.90
2017-08-18T22:22:18.382Z,0.70
2017-08-18T22:24:47.194Z,0.73
2017-08-18T22:27:17.992Z,0.70
2017-08-18T22:29:45.958Z,0.80
2017-08-18T22:32:14.074Z,1.03
2017-08-18T22:34:41.637Z,0.80
2017-08-18T22:37:09.189Z,1.20
2017-08-18T22:39:36.751Z,0.80
2017-08-18T22:42:07.013Z,0.83
2017-08-18T22:44:34.449Z,0.80
2017-08-18T22:47:02.674Z,0.70
2017-08-18T22:49:30.133Z,0.90
2017-08-18T22:51:57.585Z,1.00
2017-08-18T22:54:25.046Z,0.83
2017-08-18T22:56:52.510Z,0.70
2017-08-18T22:59:20.075Z,0.90
2017-08-18T23:01:47.538Z,1.30
2017-08-18T23:04:15.089Z,0.80
2017-08-18T23:06:42.554Z,0.87
2017-08-18T23:09:10.101Z,0.80
2017-08-18T23:11:37.581Z,0.60
2017-08-18T23:14:05.029Z,0.87
2017-08-18T23:16:32.544Z,0.90
2017-08-18T23:18:59.998Z,0.90
2017-08-18T23:21:27.454Z,0.97
2017-08-18T23:23:54.913Z,1.00
2017-08-18T23:26:22.373Z,0.90
2017-08-18T23:28:49.830Z,1.20
2017-08-18T23:31:17.282Z,1.47
2017-08-18T23:33:44.737Z,1.40
2017-08-18T23:36:12.222Z,1.30
2017-08-18T23:38:39.688Z,1.20
2017-08-18T23:41:07.137Z,1.63
2017-08-18T23:43:34.694Z,2.23
2017-08-18T23:46:02.146Z,1.60
2017-08-18T23:48:29.705Z,1.87
2017-08-18T23:50:57.275Z,1.47
2017-08-18T23:53:24.721Z,1.30
2017-08-18T23:55:52.181Z,1.47
2017-08-18T23:58:19.639Z,1.77
